Terminal Aerodrome Forecast
Issued by NWS

Current Version | Previous Version | Graphics & Text | Print | Product List | Glossary On
Versions: 1 2 3 4 5 6 7 8 9 10 11 12 13 14 15 16 17 18 19 20 21 22 23 24 25
000
FTUS41 KILN 041730
TAFLUK
TAF
KLUK 041730Z 0418/0518 12007KT P6SM VCSH SCT028 OVC070
     FM042000 14008KT 4SM -RA BR OVC028
     FM042200 14008KT 4SM -RA BR OVC015
     FM050000 17006KT 4SM -RA BR OVC009
     FM050300 27008KT P6SM OVC009
     FM051400 13003KT P6SM BKN015=

USA.gov is the U.S. government's official web portal to all federal, state and local government web resources and services.